Time;durP1;ratioP1;P1;durP2;ratioP2;P2;SDS_P1;SDS_P2;PMS_P1;PMS_P2;Temp;Humidity;BMP_temperature;BMP_pressure;BME280_temperature;BME280_humidity;BME280_pressure;Samples;Min_cycle;Max_cycle;Signal;HPM_P1;HPM_P2
2022/07/15 00:02:20;;;;;;;3.30;3.00;;;21.60;57.60;;;;;;5054888;28;20825;-56
2022/07/15 00:04:47;;;;;;;3.97;3.57;;;21.60;57.80;;;;;;5054662;28;20481;-57
2022/07/15 00:07:14;;;;;;;3.70;3.20;;;21.70;58.30;;;;;;5054375;28;20477;-56
2022/07/15 00:12:27;;;;;;;9.57;3.43;;;21.60;58.20;;;;;;5054669;28;20811;-56
2022/07/15 00:14:54;;;;;;;3.90;3.60;;;21.40;57.70;;;;;;5054597;28;20521;-56
2022/07/15 00:17:21;;;;;;;4.50;3.03;;;21.30;58.10;;;;;;5054224;28;20445;-56
2022/07/15 00:19:49;;;;;;;4.90;3.20;;;21.40;58.50;;;;;;5054520;28;20556;-56
2022/07/15 00:22:16;;;;;;;4.53;4.13;;;21.30;58.10;;;;;;5054127;28;20453;-56
2022/07/15 00:24:44;;;;;;;4.53;4.07;;;21.30;58.50;;;;;;5054296;28;20838;-56
2022/07/15 00:27:13;;;;;;;5.17;3.87;;;21.20;58.10;;;;;;5054456;28;20552;-56
2022/07/15 00:29:40;;;;;;;4.27;3.80;;;21.20;58.30;;;;;;5054259;28;20523;-56
2022/07/15 00:32:07;;;;;;;5.30;3.97;;;21.20;58.60;;;;;;5054222;28;20525;-56
2022/07/15 00:34:35;;;;;;;5.13;3.70;;;21.00;58.60;;;;;;5054326;28;20528;-56
2022/07/15 00:37:02;;;;;;;3.90;3.50;;;21.00;58.80;;;;;;5054388;28;20540;-56
2022/07/15 00:39:29;;;;;;;8.43;3.43;;;20.90;59.00;;;;;;5053992;28;20453;-56
2022/07/15 00:41:58;;;;;;;13.13;3.77;;;20.90;59.10;;;;;;5053747;28;20473;-56
2022/07/15 00:44:26;;;;;;;5.73;3.23;;;20.90;59.50;;;;;;5053804;28;20548;-56
2022/07/15 00:46:53;;;;;;;3.20;3.00;;;21.00;59.20;;;;;;5053528;28;21031;-56
2022/07/15 00:49:21;;;;;;;4.20;3.30;;;20.90;59.20;;;;;;5053583;28;20484;-56
2022/07/15 00:51:50;;;;;;;5.53;3.93;;;20.90;59.60;;;;;;5054008;28;20449;-56
2022/07/15 00:54:23;;;;;;;5.07;3.57;;;20.90;59.40;;;;;;5053780;28;20628;-56
2022/07/15 00:56:52;;;;;;;5.33;3.47;;;20.80;59.40;;;;;;5053811;28;20446;-56
2022/07/15 00:59:22;;;;;;;5.13;3.70;;;20.70;59.30;;;;;;5054061;28;20471;-56
2022/07/15 01:01:52;;;;;;;4.93;3.83;;;20.80;59.30;;;;;;5053852;28;20480;-56
2022/07/15 01:04:20;;;;;;;6.53;3.60;;;20.80;59.50;;;;;;5053673;28;20448;-56
2022/07/15 01:06:47;;;;;;;8.10;3.33;;;20.80;59.10;;;;;;5053593;28;20495;-56
2022/07/15 01:09:14;;;;;;;5.93;3.77;;;20.70;59.30;;;;;;5053471;28;20458;-56
2022/07/15 01:11:42;;;;;;;5.90;3.30;;;20.70;59.40;;;;;;5053529;28;20452;-56
2022/07/15 01:14:09;;;;;;;7.03;3.10;;;20.60;59.40;;;;;;5053459;28;20445;-56
2022/07/15 01:16:37;;;;;;;4.30;4.00;;;20.60;59.20;;;;;;5053590;28;20449;-56
2022/07/15 01:19:05;;;;;;;6.00;3.83;;;20.60;59.10;;;;;;5053439;28;20454;-56
2022/07/15 01:21:34;;;;;;;3.90;3.50;;;20.60;59.50;;;;;;5052937;28;20476;-57
2022/07/15 01:24:01;;;;;;;4.33;3.93;;;20.50;59.20;;;;;;5053199;28;20962;-56
2022/07/15 01:26:28;;;;;;;5.80;3.80;;;20.50;59.70;;;;;;5052984;28;20477;-57
2022/07/15 01:28:55;;;;;;;5.50;3.60;;;20.60;59.70;;;;;;5053060;28;20456;-56
2022/07/15 01:31:22;;;;;;;5.03;3.60;;;20.60;60.00;;;;;;5053012;28;20920;-56
2022/07/15 01:33:49;;;;;;;3.63;3.33;;;20.50;59.70;;;;;;5052948;28;20544;-56
2022/07/15 01:36:16;;;;;;;3.63;3.30;;;20.40;60.00;;;;;;5052875;28;20482;-56
2022/07/15 01:38:45;;;;;;;7.63;3.90;;;20.30;59.50;;;;;;5053054;28;20483;-56
2022/07/15 01:41:13;;;;;;;5.80;3.77;;;20.30;59.60;;;;;;5052727;28;20487;-56
2022/07/15 01:43:40;;;;;;;8.30;3.50;;;20.30;59.70;;;;;;5052856;28;20449;-56
2022/07/15 01:46:07;;;;;;;3.97;3.40;;;20.30;59.50;;;;;;5052808;28;20572;-56
2022/07/15 01:51:19;;;;;;;4.33;3.03;;;20.20;59.70;;;;;;5053018;28;20448;-56
2022/07/15 01:53:48;;;;;;;4.47;3.07;;;20.30;59.30;;;;;;5052784;28;20828;-56
2022/07/15 01:56:15;;;;;;;6.30;3.33;;;20.30;59.90;;;;;;5053023;28;20803;-56
2022/07/15 01:58:42;;;;;;;4.70;3.00;;;20.30;59.80;;;;;;5052904;28;20425;-56
2022/07/15 02:01:09;;;;;;;5.90;3.33;;;20.20;59.70;;;;;;5052929;28;20473;-56
2022/07/15 02:03:36;;;;;;;4.03;3.30;;;20.20;60.10;;;;;;5052660;28;20540;-56
2022/07/15 02:06:05;;;;;;;5.57;3.50;;;20.10;59.70;;;;;;5052930;28;20533;-56
2022/07/15 02:08:32;;;;;;;3.80;3.37;;;20.10;59.80;;;;;;5052890;28;20884;-56
2022/07/15 02:11:01;;;;;;;8.40;3.70;;;20.20;60.30;;;;;;5052845;28;20475;-56
2022/07/15 02:13:28;;;;;;;6.40;3.70;;;20.20;60.10;;;;;;5052803;28;20429;-56
2022/07/15 02:15:56;;;;;;;5.73;3.30;;;20.10;60.10;;;;;;5052851;28;20781;-56
2022/07/15 02:18:23;;;;;;;8.23;3.13;;;20.10;60.10;;;;;;5052531;28;20449;-56
2022/07/15 02:20:50;;;;;;;3.50;3.20;;;20.00;59.90;;;;;;5052604;28;20560;-56
2022/07/15 02:23:18;;;;;;;5.40;3.73;;;19.80;60.10;;;;;;5052481;28;20452;-56
2022/07/15 02:25:45;;;;;;;5.27;3.33;;;19.70;60.80;;;;;;5052340;28;20568;-56
2022/07/15 02:28:13;;;;;;;4.37;3.17;;;19.70;61.80;;;;;;5052879;28;20441;-56
2022/07/15 02:30:44;;;;;;;3.40;2.90;;;19.80;60.90;;;;;;5052320;28;20568;-56
2022/07/15 02:33:13;;;;;;;4.30;3.30;;;19.70;61.60;;;;;;5054676;28;20837;-56
2022/07/15 02:35:42;;;;;;;3.40;3.10;;;19.50;62.00;;;;;;5056022;28;20928;-56
2022/07/15 02:38:09;;;;;;;4.20;3.70;;;19.30;62.10;;;;;;5056507;28;20445;-56
2022/07/15 02:40:36;;;;;;;6.03;3.77;;;19.20;61.90;;;;;;5056008;28;20488;-56
2022/07/15 02:43:04;;;;;;;5.80;2.80;;;19.30;62.30;;;;;;5056085;28;20485;-56
2022/07/15 02:45:35;;;;;;;3.60;3.30;;;19.30;62.50;;;;;;5056357;28;20487;-56
2022/07/15 02:48:03;;;;;;;10.03;5.83;;;19.40;64.30;;;;;;5056333;28;20520;-56
2022/07/15 02:50:30;;;;;;;3.30;3.03;;;19.40;63.50;;;;;;5056122;28;20465;-56
2022/07/15 02:52:57;;;;;;;4.40;3.10;;;19.40;63.90;;;;;;5056268;28;20449;-56
2022/07/15 02:55:25;;;;;;;3.87;3.53;;;19.40;63.30;;;;;;5056111;28;20528;-56
2022/07/15 02:57:52;;;;;;;6.67;3.60;;;19.40;63.10;;;;;;5055729;28;21043;-56
2022/07/15 03:00:20;;;;;;;4.40;3.30;;;19.40;63.50;;;;;;5056060;28;20552;-56
2022/07/15 03:02:49;;;;;;;3.27;2.70;;;19.50;64.10;;;;;;5055696;28;20444;-57
2022/07/15 03:05:17;;;;;;;4.73;2.83;;;19.40;63.90;;;;;;5055675;28;20476;-56
2022/07/15 03:07:45;;;;;;;4.33;3.50;;;19.40;64.30;;;;;;5055508;28;20436;-56
2022/07/15 03:10:13;;;;;;;3.70;3.30;;;19.40;64.60;;;;;;5055928;28;20473;-56
2022/07/15 03:12:40;;;;;;;3.10;2.87;;;19.40;64.50;;;;;;5055830;28;20532;-56
2022/07/15 03:15:09;;;;;;;3.30;2.83;;;19.20;64.10;;;;;;5055719;28;20451;-56
2022/07/15 03:17:36;;;;;;;3.97;2.93;;;19.10;65.10;;;;;;5055489;28;21000;-56
2022/07/15 03:20:05;;;;;;;7.47;4.03;;;19.10;65.20;;;;;;5055575;28;20869;-56
2022/07/15 03:22:32;;;;;;;3.20;2.83;;;18.90;65.20;;;;;;5055562;28;20944;-56
2022/07/15 03:25:00;;;;;;;6.40;3.90;;;18.70;65.70;;;;;;5055755;28;20563;-56
2022/07/15 03:27:27;;;;;;;3.50;3.20;;;18.50;66.50;;;;;;5055135;28;20564;-56
2022/07/15 03:29:54;;;;;;;3.80;3.50;;;18.40;66.90;;;;;;5055078;28;21014;-56
2022/07/15 03:32:22;;;;;;;4.37;3.60;;;18.40;67.40;;;;;;5055258;28;20971;-56
2022/07/15 03:34:49;;;;;;;4.10;3.40;;;18.50;67.50;;;;;;5054984;28;20460;-56
2022/07/15 03:37:18;;;;;;;4.40;3.67;;;18.50;67.80;;;;;;5055240;28;20469;-56
2022/07/15 03:39:45;;;;;;;3.20;2.97;;;18.40;68.20;;;;;;5054854;28;20471;-56
2022/07/15 03:42:13;;;;;;;3.20;2.90;;;18.30;68.60;;;;;;5055309;28;20843;-56
2022/07/15 03:44:40;;;;;;;3.03;2.83;;;18.20;69.00;;;;;;5054532;28;20520;-56
2022/07/15 03:47:07;;;;;;;4.23;3.77;;;18.20;69.40;;;;;;5054941;28;20474;-56
2022/07/15 03:49:34;;;;;;;6.10;3.60;;;18.30;71.00;;;;;;5055096;28;20454;-56
2022/07/15 03:52:02;;;;;;;3.93;3.53;;;18.50;71.20;;;;;;5054797;28;20429;-56
2022/07/15 03:54:30;;;;;;;4.97;3.33;;;18.50;70.30;;;;;;5055051;28;20452;-57
2022/07/15 03:56:58;;;;;;;4.03;3.20;;;18.40;70.10;;;;;;5054855;28;20945;-56
2022/07/15 03:59:26;;;;;;;3.67;3.37;;;18.50;70.50;;;;;;5054545;28;20456;-56
2022/07/15 04:01:53;;;;;;;3.83;3.17;;;18.50;71.30;;;;;;5054958;28;20532;-56
2022/07/15 04:04:20;;;;;;;4.97;3.33;;;18.50;70.80;;;;;;5054931;28;20446;-56
2022/07/15 04:06:47;;;;;;;3.17;2.90;;;18.40;71.50;;;;;;5054330;28;20484;-56
2022/07/15 04:09:14;;;;;;;5.87;3.40;;;18.60;73.20;;;;;;5054617;28;20445;-56
2022/07/15 04:11:43;;;;;;;6.50;3.53;;;18.80;74.60;;;;;;5054852;28;20536;-56
2022/07/15 04:14:12;;;;;;;6.03;3.50;;;18.70;72.30;;;;;;5054618;28;20516;-56
2022/07/15 04:16:40;;;;;;;5.60;3.27;;;18.60;72.40;;;;;;5054694;28;20445;-56
2022/07/15 04:19:07;;;;;;;5.60;4.07;;;18.60;72.90;;;;;;5054786;28;20503;-56
2022/07/15 04:21:34;;;;;;;5.00;4.17;;;18.70;73.40;;;;;;5054416;28;20475;-56
2022/07/15 04:24:02;;;;;;;3.77;3.47;;;18.70;72.70;;;;;;5054485;28;20449;-56
2022/07/15 04:26:29;;;;;;;5.73;4.50;;;18.60;73.60;;;;;;5054141;28;20480;-56
2022/07/15 04:28:58;;;;;;;4.20;3.80;;;18.70;74.10;;;;;;5054224;28;20535;-56
2022/07/15 04:31:25;;;;;;;6.67;3.20;;;18.70;74.60;;;;;;5054230;28;20505;-56
2022/07/15 04:33:52;;;;;;;4.93;3.40;;;18.80;74.60;;;;;;5054094;28;20538;-56
2022/07/15 04:36:19;;;;;;;4.00;3.60;;;18.80;74.80;;;;;;5053900;28;20449;-56
2022/07/15 04:38:46;;;;;;;3.30;3.00;;;18.80;74.40;;;;;;5053880;28;20445;-56
2022/07/15 04:41:14;;;;;;;4.37;3.93;;;19.00;76.60;;;;;;5052709;28;20491;-56
2022/07/15 04:43:41;;;;;;;5.87;4.33;;;19.10;76.10;;;;;;5054222;28;20548;-56
2022/07/15 04:46:09;;;;;;;4.10;3.80;;;19.00;76.20;;;;;;5053677;28;21090;-56
2022/07/15 04:51:21;;;;;;;5.00;3.77;;;19.20;77.30;;;;;;5053721;28;20456;-56
2022/07/15 04:53:48;;;;;;;7.70;4.70;;;19.20;76.80;;;;;;5053876;28;20429;-56
2022/07/15 04:56:16;;;;;;;5.63;4.57;;;19.20;76.70;;;;;;5053046;28;20532;-56
2022/07/15 04:58:43;;;;;;;3.60;3.30;;;19.30;77.50;;;;;;5053436;28;20460;-56
2022/07/15 05:01:12;;;;;;;4.90;4.40;;;19.30;77.20;;;;;;5053482;28;20994;-56
2022/07/15 05:03:39;;;;;;;5.23;3.67;;;19.30;77.70;;;;;;5053616;28;20532;-56
2022/07/15 05:06:06;;;;;;;4.77;3.70;;;19.40;78.30;;;;;;5053078;28;20820;-56
2022/07/15 05:08:34;;;;;;;4.10;3.50;;;19.40;78.10;;;;;;5053419;28;20540;-56
2022/07/15 05:11:01;;;;;;;5.17;3.80;;;19.40;75.80;;;;;;5053367;28;20465;-56
2022/07/15 05:13:28;;;;;;;4.47;3.37;;;19.40;76.80;;;;;;5053442;28;20479;-56
2022/07/15 05:15:55;;;;;;;4.13;3.73;;;19.50;78.70;;;;;;5053166;28;20811;-56
2022/07/15 05:18:25;;;;;;;4.20;3.60;;;19.50;76.80;;;;;;5053117;28;20456;-56
2022/07/15 05:20:52;;;;;;;6.30;4.47;;;19.50;77.60;;;;;;5053000;28;20998;-56
2022/07/15 05:23:19;;;;;;;8.53;4.00;;;19.50;75.60;;;;;;5053150;28;20536;-56
2022/07/15 05:25:46;;;;;;;6.90;4.80;;;19.60;77.30;;;;;;5052869;28;20927;-57
2022/07/15 05:28:14;;;;;;;6.37;3.53;;;19.70;76.40;;;;;;5052945;28;20854;-56
2022/07/15 05:30:41;;;;;;;5.50;3.80;;;19.60;75.70;;;;;;5053257;28;20981;-56
2022/07/15 05:33:09;;;;;;;5.30;4.27;;;19.60;73.70;;;;;;5053036;28;20479;-56
2022/07/15 05:35:37;;;;;;;5.17;3.63;;;19.70;74.80;;;;;;5052889;28;20962;-56
2022/07/15 05:38:05;;;;;;;10.33;4.13;;;19.80;77.80;;;;;;5053004;28;20441;-57
2022/07/15 05:40:33;;;;;;;5.17;3.83;;;19.80;78.00;;;;;;5052743;28;20580;-56
2022/07/15 05:43:00;;;;;;;5.50;3.83;;;19.90;76.50;;;;;;5052972;28;20449;-56
2022/07/15 05:45:28;;;;;;;4.07;3.67;;;19.90;76.00;;;;;;5052504;28;20544;-56
2022/07/15 05:47:55;;;;;;;6.60;3.53;;;19.90;75.50;;;;;;5052693;28;20485;-56
2022/07/15 05:50:22;;;;;;;13.83;4.30;;;19.90;74.10;;;;;;5052645;28;21002;-56
2022/07/15 05:52:51;;;;;;;7.00;3.70;;;19.90;72.00;;;;;;5052616;28;20933;-56
2022/07/15 05:55:18;;;;;;;5.70;3.90;;;19.90;71.80;;;;;;5052681;28;20460;-57
2022/07/15 05:57:45;;;;;;;6.30;3.93;;;19.90;70.50;;;;;;5052850;28;20835;-57
2022/07/15 06:00:14;;;;;;;5.80;4.00;;;20.00;70.70;;;;;;5052875;28;20474;-57
2022/07/15 06:02:41;;;;;;;5.23;3.30;;;20.10;71.70;;;;;;5052954;28;20571;-56
2022/07/15 06:05:09;;;;;;;6.13;3.37;;;20.10;69.70;;;;;;5052625;28;20457;-56
2022/07/15 06:07:37;;;;;;;6.53;3.27;;;20.20;73.50;;;;;;5055697;28;20473;-56
2022/07/15 06:10:07;;;;;;;5.00;3.80;;;20.20;69.70;;;;;;5056634;28;20468;-56
2022/07/15 06:12:34;;;;;;;3.93;3.17;;;20.20;70.00;;;;;;5056661;28;20445;-57
2022/07/15 06:15:01;;;;;;;6.47;3.40;;;20.10;69.30;;;;;;5056600;28;20503;-56
2022/07/15 06:17:30;;;;;;;5.87;3.10;;;20.20;72.00;;;;;;5056495;28;20539;-56
2022/07/15 06:19:57;;;;;;;6.40;3.47;;;20.20;66.40;;;;;;5057073;28;20473;-56
2022/07/15 06:22:25;;;;;;;4.53;3.40;;;20.30;70.00;;;;;;5056122;28;20460;-56
2022/07/15 06:24:53;;;;;;;5.70;3.40;;;20.40;67.70;;;;;;5056347;28;20944;-57
2022/07/15 06:27:22;;;;;;;3.57;3.13;;;20.50;68.30;;;;;;5056516;28;20481;-56
2022/07/15 06:29:49;;;;;;;4.67;3.17;;;20.60;66.50;;;;;;5056338;28;20464;-56
2022/07/15 06:32:17;;;;;;;9.70;4.20;;;20.60;66.00;;;;;;5056025;28;20552;-56
2022/07/15 06:34:44;;;;;;;6.60;3.13;;;20.60;68.10;;;;;;5056417;28;20487;-56
2022/07/15 06:37:11;;;;;;;6.47;3.57;;;20.60;69.10;;;;;;5056321;28;20458;-56
2022/07/15 06:39:38;;;;;;;3.50;3.20;;;20.70;68.50;;;;;;5055827;28;20465;-57
2022/07/15 06:42:06;;;;;;;6.97;3.37;;;20.80;69.60;;;;;;5055761;28;20473;-56
2022/07/15 06:44:35;;;;;;;4.37;3.17;;;20.80;65.90;;;;;;5055849;28;20445;-57
2022/07/15 06:47:06;;;;;;;4.73;2.93;;;20.90;65.00;;;;;;5056207;28;20535;-57
2022/07/15 06:49:34;;;;;;;4.17;2.63;;;20.90;64.90;;;;;;5056389;28;20483;-56
2022/07/15 06:52:01;;;;;;;2.63;2.43;;;21.00;63.30;;;;;;5055876;28;20455;-56
2022/07/15 06:54:29;;;;;;;4.43;3.20;;;20.90;59.80;;;;;;5056198;28;20889;-56
2022/07/15 06:56:56;;;;;;;3.90;2.80;;;21.00;61.90;;;;;;5056219;28;20445;-57
2022/07/15 06:59:23;;;;;;;3.17;2.60;;;21.10;63.00;;;;;;5055699;28;21039;-57
2022/07/15 07:01:52;;;;;;;4.30;2.50;;;21.20;62.30;;;;;;5055958;28;20510;-56
2022/07/15 07:04:19;;;;;;;2.83;2.63;;;21.20;59.20;;;;;;5055536;28;20448;-57
2022/07/15 07:06:47;;;;;;;8.60;3.17;;;21.20;59.60;;;;;;5056059;28;20800;-56
2022/07/15 07:09:14;;;;;;;3.83;2.37;;;21.20;59.70;;;;;;5055394;28;20994;-57
2022/07/15 07:11:41;;;;;;;6.90;3.03;;;21.30;60.30;;;;;;5055713;28;20450;-57
2022/07/15 07:14:09;;;;;;;2.77;2.53;;;21.40;58.60;;;;;;5055925;28;20486;-57
2022/07/15 07:16:36;;;;;;;4.67;2.97;;;21.50;59.10;;;;;;5055839;28;20532;-56
2022/07/15 07:19:04;;;;;;;3.40;2.80;;;21.80;59.20;;;;;;5055029;28;20848;-56
2022/07/15 07:21:32;;;;;;;5.53;3.30;;;22.30;57.70;;;;;;5055616;28;20898;-56
2022/07/15 07:23:59;;;;;;;5.20;3.00;;;22.80;56.20;;;;;;5054978;28;20456;-57
2022/07/15 07:26:27;;;;;;;3.73;2.80;;;23.50;57.80;;;;;;5055528;28;20459;-57
2022/07/15 07:28:54;;;;;;;4.73;2.60;;;23.90;55.30;;;;;;5055171;28;20564;-57
2022/07/15 07:31:25;;;;;;;3.57;2.43;;;24.50;55.40;;;;;;5055211;28;20821;-57
2022/07/15 07:33:53;;;;;;;3.03;2.73;;;25.00;56.70;;;;;;5055476;28;20953;-57
2022/07/15 07:36:22;;;;;;;3.37;2.40;;;25.40;55.90;;;;;;5055551;28;20453;-57
2022/07/15 07:38:49;;;;;;;4.17;3.47;;;25.50;54.50;;;;;;5055033;28;20447;-57
2022/07/15 07:41:17;;;;;;;2.93;2.73;;;25.90;53.50;;;;;;5054579;28;20536;-57
2022/07/15 07:43:45;;;;;;;4.60;2.90;;;26.00;53.90;;;;;;5054809;28;20454;-57
2022/07/15 07:46:13;;;;;;;7.10;3.20;;;25.60;53.70;;;;;;5055412;28;20449;-57
2022/07/15 07:48:40;;;;;;;4.00;3.60;;;26.00;53.40;;;;;;5054819;28;20573;-57
2022/07/15 07:51:08;;;;;;;3.73;3.20;;;26.40;54.10;;;;;;5054596;28;20468;-57
2022/07/15 07:53:37;;;;;;;5.30;3.13;;;26.50;51.70;;;;;;5055171;28;20801;-58
2022/07/15 07:56:05;;;;;;;5.80;3.33;;;27.10;53.00;;;;;;5054790;28;20503;-58
2022/07/15 07:58:32;;;;;;;3.10;2.40;;;27.10;52.00;;;;;;5054444;28;20544;-57
2022/07/15 08:00:59;;;;;;;6.70;2.50;;;27.20;51.80;;;;;;5054804;28;20854;-57
2022/07/15 08:03:27;;;;;;;2.77;2.20;;;27.30;51.40;;;;;;5054511;28;20445;-57
2022/07/15 08:05:55;;;;;;;3.93;2.80;;;27.50;51.90;;;;;;5054945;28;20457;-57
2022/07/15 08:08:23;;;;;;;4.20;2.73;;;27.60;49.20;;;;;;5054352;28;20915;-57
2022/07/15 08:10:54;;;;;;;6.40;3.00;;;28.30;49.50;;;;;;5054684;28;20539;-57
2022/07/15 08:13:22;;;;;;;4.40;2.77;;;28.40;49.30;;;;;;5054537;28;20430;-58
2022/07/15 08:15:50;;;;;;;5.13;2.77;;;28.20;48.60;;;;;;5054510;28;20449;-57
2022/07/15 08:18:17;;;;;;;4.17;2.70;;;28.40;49.90;;;;;;5054677;28;20448;-58
2022/07/15 08:20:44;;;;;;;5.17;2.60;;;29.10;48.90;;;;;;5054363;28;20477;-57
2022/07/15 08:23:11;;;;;;;4.77;2.80;;;29.00;47.70;;;;;;5054105;28;20433;-57
2022/07/15 08:25:39;;;;;;;6.57;2.67;;;29.00;47.30;;;;;;5054429;28;20537;-57
2022/07/15 08:28:08;;;;;;;3.20;2.43;;;28.10;47.90;;;;;;5054317;28;20480;-57
2022/07/15 08:30:36;;;;;;;3.10;2.47;;;28.10;48.30;;;;;;5052867;28;20557;-58
2022/07/15 08:33:03;;;;;;;3.97;2.63;;;28.40;47.20;;;;;;5054054;28;20808;-58
2022/07/15 08:35:31;;;;;;;2.70;2.50;;;28.90;47.10;;;;;;5053960;28;20540;-58
2022/07/15 08:37:59;;;;;;;3.70;2.50;;;29.50;46.40;;;;;;5054022;28;20450;-58
2022/07/15 08:40:27;;;;;;;3.27;2.20;;;29.90;47.10;;;;;;5053885;28;20487;-58
2022/07/15 08:42:55;;;;;;;4.07;2.10;;;28.80;46.40;;;;;;5054181;28;20433;-58
2022/07/15 08:45:23;;;;;;;3.13;2.47;;;29.10;47.40;;;;;;5053795;28;20459;-58
2022/07/15 08:47:52;;;;;;;2.70;2.40;;;29.40;47.10;;;;;;5053287;28;20485;-58
2022/07/15 08:50:20;;;;;;;3.80;2.47;;;29.70;46.80;;;;;;5053823;28;20469;-58
2022/07/15 08:52:48;;;;;;;3.50;2.53;;;29.80;45.40;;;;;;5053442;28;20488;-58
2022/07/15 08:55:17;;;;;;;3.73;3.27;;;28.40;46.20;;;;;;5053263;28;20542;-58
2022/07/15 08:57:47;;;;;;;3.20;2.37;;;28.70;46.40;;;;;;5053578;28;20591;-58
2022/07/15 09:00:15;;;;;;;2.63;2.20;;;29.70;46.60;;;;;;5053248;28;20468;-57
2022/07/15 09:02:43;;;;;;;3.43;2.40;;;30.20;46.50;;;;;;5053332;28;20962;-57
2022/07/15 09:05:22;;;;;;;3.77;2.60;;;29.90;45.20;;;;;;5053275;28;20592;-58
2022/07/15 09:07:55;;;;;;;3.57;2.97;;;30.40;45.90;;;;;;5053629;28;20479;-57
2022/07/15 09:10:23;;;;;;;7.50;3.17;;;30.60;45.90;;;;;;5053590;28;20468;-57
2022/07/15 09:12:51;;;;;;;2.80;2.40;;;30.90;46.10;;;;;;5053150;28;20544;-57
2022/07/15 09:15:33;;;;;;;3.50;2.80;;;31.50;45.20;;;;;;5053608;28;20855;-57
2022/07/15 09:18:07;;;;;;;3.20;2.40;;;30.50;44.40;;;;;;5053537;28;20505;-57
2022/07/15 09:20:34;;;;;;;4.90;2.63;;;30.10;46.30;;;;;;5053082;28;20523;-57
2022/07/15 09:23:03;;;;;;;4.23;2.83;;;30.30;46.40;;;;;;5052900;28;20461;-56
2022/07/15 09:25:33;;;;;;;5.50;3.57;;;30.70;45.10;;;;;;5053127;28;20445;-58
2022/07/15 09:28:01;;;;;;;4.03;2.53;;;30.50;45.70;;;;;;5053370;28;20913;-57
2022/07/15 09:33:36;;;;;;;3.73;2.70;;;29.00;45.90;;;;;;5053089;28;20463;-57
2022/07/15 09:36:10;;;;;;;7.97;3.13;;;28.50;47.00;;;;;;5053295;28;20507;-57
2022/07/15 09:38:47;;;;;;;2.73;2.50;;;29.30;47.40;;;;;;5052940;28;20430;-57
2022/07/15 09:41:25;;;;;;;3.57;2.80;;;29.70;46.20;;;;;;5052484;28;20546;-57
2022/07/15 09:43:54;;;;;;;3.90;2.77;;;30.40;46.70;;;;;;5052766;28;20432;-57
2022/07/15 09:46:24;;;;;;;3.33;2.30;;;31.10;45.60;;;;;;5053251;28;20556;-58
2022/07/15 09:48:54;;;;;;;5.00;2.80;;;30.20;44.70;;;;;;5052609;28;20563;-57
2022/07/15 09:51:22;;;;;;;4.20;2.73;;;29.70;45.80;;;;;;5052829;28;20976;-58
2022/07/15 09:53:50;;;;;;;2.97;2.63;;;30.40;45.80;;;;;;5052800;28;20820;-58
2022/07/15 09:56:26;;;;;;;3.50;2.40;;;31.30;45.20;;;;;;5053084;28;20528;-58
2022/07/15 09:58:53;;;;;;;3.93;2.70;;;32.00;45.50;;;;;;5053060;28;20876;-57
2022/07/15 10:01:20;;;;;;;5.10;2.50;;;32.20;43.90;;;;;;5052758;28;20461;-57
2022/07/15 10:03:49;;;;;;;2.47;2.20;;;32.20;43.20;;;;;;5053010;28;20449;-57
2022/07/15 10:06:19;;;;;;;2.70;2.50;;;32.60;44.20;;;;;;5052609;28;20861;-57
2022/07/15 10:08:49;;;;;;;6.40;2.97;;;31.70;43.10;;;;;;5052613;28;20472;-57
2022/07/15 10:11:17;;;;;;;3.03;2.40;;;31.30;44.00;;;;;;5052598;28;20522;-57
2022/07/15 10:14:21;;;;;;;3.40;3.10;;;29.70;45.20;;;;;;5052768;28;20441;-57
2022/07/15 10:17:20;;;;;;;3.40;2.50;;;28.70;45.20;;;;;;5052761;28;20792;-57
2022/07/15 10:20:16;;;;;;;4.10;3.40;;;28.90;45.40;;;;;;5052759;28;20464;-57
2022/07/15 10:22:56;;;;;;;7.13;2.60;;;29.80;45.80;;;;;;5047414;28;20473;-57
2022/07/15 10:25:46;;;;;;;7.50;3.07;;;30.40;46.20;;;;;;5052445;28;20969;-57
2022/07/15 10:28:16;;;;;;;5.40;2.80;;;29.80;44.90;;;;;;5052219;28;20569;-57
2022/07/15 10:30:44;;;;;;;7.20;3.60;;;29.90;45.70;;;;;;5052570;28;20512;-56
2022/07/15 10:33:16;;;;;;;3.70;3.03;;;29.90;44.70;;;;;;5052420;28;20951;-56
2022/07/15 10:35:48;;;;;;;5.20;2.67;;;30.20;45.60;;;;;;5052487;28;20453;-56
2022/07/15 10:38:28;;;;;;;3.60;2.50;;;31.20;45.10;;;;;;5052649;28;20429;-58
2022/07/15 10:41:01;;;;;;;4.30;3.03;;;31.00;43.80;;;;;;5052036;28;20531;-58
2022/07/15 10:43:43;;;;;;;4.83;2.60;;;30.70;45.10;;;;;;5052378;28;20450;-59
2022/07/15 10:46:34;;;;;;;5.63;2.90;;;31.10;44.90;;;;;;5052301;28;20449;-58
2022/07/15 10:49:38;;;;;;;6.47;3.17;;;31.00;45.60;;;;;;5037528;28;20484;-59
2022/07/15 10:52:16;;;;;;;6.40;2.63;;;30.50;45.50;;;;;;5051915;28;20512;-58
2022/07/15 10:54:51;;;;;;;5.80;2.77;;;30.90;45.40;;;;;;5054821;28;20441;-59
2022/07/15 10:57:20;;;;;;;4.40;2.70;;;31.20;44.10;;;;;;5055312;28;20448;-59
2022/07/15 10:59:52;;;;;;;3.23;2.70;;;30.00;45.70;;;;;;5056089;28;20461;-59
2022/07/15 11:02:22;;;;;;;7.47;2.80;;;30.60;45.80;;;;;;5055748;28;20449;-60
2022/07/15 11:04:51;;;;;;;3.27;2.60;;;30.00;46.30;;;;;;5055304;28;20544;-56
2022/07/15 11:07:32;;;;;;;9.53;3.10;;;29.60;46.60;;;;;;5063755;28;20463;-58
2022/07/15 11:10:21;;;;;;;5.20;2.37;;;29.30;46.50;;;;;;5073101;28;20491;-59
2022/07/15 11:13:00;;;;;;;4.57;2.80;;;29.60;46.70;;;;;;5062401;28;20484;-59
2022/07/15 11:15:28;;;;;;;2.63;2.43;;;29.60;46.60;;;;;;5055318;28;20433;-60
2022/07/15 11:17:57;;;;;;;4.17;3.00;;;29.80;46.20;;;;;;5055328;28;20473;-64
2022/07/15 11:20:30;;;;;;;4.20;3.80;;;29.90;46.50;;;;;;5055210;28;20509;-69
2022/07/15 11:23:05;;;;;;;4.20;2.80;;;29.80;45.70;;;;;;5056201;28;20433;-69
2022/07/15 11:25:35;;;;;;;3.50;2.93;;;30.50;45.70;;;;;;5055484;28;20942;-59
2022/07/15 11:28:05;;;;;;;5.03;2.80;;;30.10;47.00;;;;;;5057996;28;20832;-59
2022/07/15 11:30:35;;;;;;;3.60;2.63;;;29.60;46.40;;;;;;5065193;28;20571;-56
2022/07/15 11:33:04;;;;;;;4.50;3.30;;;28.90;46.10;;;;;;5054760;28;20452;-55
2022/07/15 11:35:43;;;;;;;5.40;3.27;;;29.20;45.40;;;;;;5053645;28;20453;-58
2022/07/15 11:38:10;;;;;;;7.13;2.77;;;29.20;46.70;;;;;;5054150;28;20444;-58
2022/07/15 11:46:15;;;;;;;3.87;2.70;;;30.50;45.50;;;;;;5074184;28;20424;-57
2022/07/15 11:48:42;;;;;;;3.47;2.73;;;30.00;46.50;;;;;;5075896;28;20484;-54
2022/07/15 11:51:12;;;;;;;3.50;3.20;;;29.60;46.50;;;;;;5071016;28;20488;-55
2022/07/15 11:53:41;;;;;;;5.70;3.17;;;28.90;46.80;;;;;;5074988;28;20444;-56
2022/07/15 11:56:11;;;;;;;9.40;3.10;;;29.80;46.40;;;;;;5072391;28;20502;-52
2022/07/15 11:58:40;;;;;;;4.77;3.10;;;29.80;46.00;;;;;;5061986;28;20552;-55
2022/07/15 12:01:09;;;;;;;3.45;2.70;;;29.70;46.70;;;;;;5054831;28;21088;-59
2022/07/15 12:03:40;;;;;;;4.17;3.20;;;30.00;45.70;;;;;;5060503;28;20298;-59
2022/07/15 12:06:13;;;;;;;6.27;2.97;;;29.50;46.30;;;;;;5048792;28;20469;-59
2022/07/15 12:08:46;;;;;;;2.87;2.57;;;29.20;47.40;;;;;;5056077;28;20476;-63
2022/07/15 12:11:20;;;;;;;3.10;2.80;;;28.80;47.20;;;;;;5055490;28;20984;-64
2022/07/15 12:13:50;;;;;;;4.93;3.03;;;29.50;47.50;;;;;;5060372;28;20452;-66
2022/07/15 12:16:25;;;;;;;4.77;4.30;;;29.80;46.30;;;;;;5051684;28;20467;-61
2022/07/15 12:18:54;;;;;;;4.37;2.90;;;29.30;47.20;;;;;;5057898;28;20452;-63
2022/07/15 12:21:22;;;;;;;6.03;3.60;;;29.20;46.40;;;;;;5050592;28;20468;-61
2022/07/15 12:24:06;;;;;;;5.13;3.67;;;29.30;47.60;;;;;;5059030;28;20461;-59
2022/07/15 12:26:38;;;;;;;4.10;3.77;;;29.10;48.00;;;;;;5061136;28;20452;-59
2022/07/15 12:29:06;;;;;;;4.83;3.30;;;29.00;48.00;;;;;;5059386;28;20477;-61
2022/07/15 12:31:34;;;;;;;5.10;3.10;;;28.50;48.00;;;;;;5063180;28;20658;-62
2022/07/15 12:34:02;;;;;;;3.27;2.83;;;28.70;46.70;;;;;;5060293;28;20456;-57
2022/07/15 12:36:31;;;;;;;3.57;3.27;;;29.10;48.00;;;;;;5064356;28;20476;-57
2022/07/15 12:39:18;;;;;;;4.23;3.00;;;28.70;48.60;;;;;;5055748;28;20449;-57
2022/07/15 12:42:00;;;;;;;4.77;3.40;;;28.90;47.20;;;;;;5059673;28;20481;-57
2022/07/15 12:44:28;;;;;;;5.67;2.90;;;29.50;48.00;;;;;;5054745;28;20457;-60
2022/07/15 12:46:57;;;;;;;3.27;2.97;;;29.60;48.00;;;;;;5059081;28;20456;-61
2022/07/15 12:49:43;;;;;;;4.20;3.10;;;29.20;46.50;;;;;;5054417;28;20534;-57
2022/07/15 12:52:32;;;;;;;6.50;3.60;;;29.40;47.60;;;;;;5054406;28;20490;-56
2022/07/15 12:55:00;;;;;;;3.80;3.03;;;28.90;48.20;;;;;;5047780;28;20488;-54
2022/07/15 12:57:38;;;;;;;5.93;2.80;;;29.00;48.50;;;;;;5059446;28;20495;-62
2022/07/15 13:00:11;;;;;;;4.97;2.80;;;28.70;47.60;;;;;;5059363;28;20556;-56
2022/07/15 13:03:01;;;;;;;3.77;3.47;;;29.00;46.70;;;;;;5062943;28;20459;-52
2022/07/15 13:05:31;;;;;;;3.60;3.10;;;29.60;48.00;;;;;;5060991;28;20474;-55
2022/07/15 13:07:59;;;;;;;3.43;2.93;;;29.30;46.60;;;;;;5065564;28;20489;-53
2022/07/15 13:10:28;;;;;;;4.50;3.30;;;29.30;48.10;;;;;;5063365;28;20508;-50
2022/07/15 13:12:56;;;;;;;4.17;3.30;;;28.90;47.50;;;;;;5060893;28;20955;-53
2022/07/15 13:15:23;;;;;;;6.30;3.10;;;28.70;48.40;;;;;;5072975;28;20452;-56